Time;durP1;ratioP1;P1;durP2;ratioP2;P2;SDS_P1;SDS_P2;PMS_P1;PMS_P2;Temp;Humidity;BMP_temperature;BMP_pressure;BME280_temperature;BME280_humidity;BME280_pressure;Samples;Min_cycle;Max_cycle;Signal;HPM_P1;HPM_P2
2022/09/05 00:02:31;;;;;;;5.43;2.70;;;;;;;18.33;100.00;101766.03;5297217;28;20046;-67
2022/09/05 00:05:11;;;;;;;6.15;2.63;;;;;;;18.18;100.00;101769.28;5293865;28;20028;-67
2022/09/05 00:08:01;;;;;;;8.35;3.40;;;;;;;18.41;100.00;101769.56;5297361;28;20119;-67
2022/09/05 00:10:54;;;;;;;4.47;2.83;;;;;;;18.42;100.00;101760.59;5292888;28;20027;-67
2022/09/05 00:13:30;;;;;;;6.65;3.30;;;;;;;18.27;100.00;101758.72;5296948;28;20542;-67
2022/09/05 00:16:20;;;;;;;5.45;3.38;;;;;;;18.13;100.00;101757.47;5298011;28;20020;-67
2022/09/05 00:19:04;;;;;;;6.88;3.13;;;;;;;18.23;100.00;101768.81;5293492;28;20028;-67
2022/09/05 00:22:00;;;;;;;6.95;2.92;;;;;;;18.36;100.00;101763.06;5295716;28;20034;-67
2022/09/05 00:25:13;;;;;;;6.68;3.67;;;;;;;18.31;100.00;101765.38;5297780;28;20024;-67
2022/09/05 00:28:03;;;;;;;4.63;2.93;;;;;;;18.12;100.00;101753.16;5294049;28;20594;-67
2022/09/05 00:31:00;;;;;;;6.82;2.80;;;;;;;18.29;100.00;101748.75;5293668;28;20031;-67
2022/09/05 00:33:59;;;;;;;4.45;2.83;;;;;;;18.10;100.00;101755.13;5297489;28;20046;-67
2022/09/05 00:36:44;;;;;;;6.55;3.00;;;;;;;18.11;100.00;101752.34;5295035;28;20087;-67
2022/09/05 00:39:25;;;;;;;9.50;3.10;;;;;;;18.03;100.00;101762.88;5296947;28;20477;-67
2022/09/05 00:42:07;;;;;;;6.38;2.50;;;;;;;18.02;100.00;101763.88;5297476;28;20016;-67
2022/09/05 00:45:00;;;;;;;6.53;3.38;;;;;;;18.18;100.00;101760.47;5295936;28;20031;-67
2022/09/05 00:47:49;;;;;;;4.25;3.00;;;;;;;18.05;100.00;101760.91;5297596;28;20016;-68
2022/09/05 00:50:28;;;;;;;8.60;3.60;;;;;;;17.89;100.00;101761.66;5297476;28;20051;-67
2022/09/05 00:53:09;;;;;;;3.80;2.90;;;;;;;17.87;100.00;101760.94;5295159;28;20377;-67
2022/09/05 00:55:56;;;;;;;6.57;2.78;;;;;;;17.89;100.00;101752.88;5297502;28;20028;-67
2022/09/05 00:58:39;;;;;;;5.40;2.78;;;;;;;17.94;100.00;101753.22;5298041;28;20048;-67
2022/09/05 01:01:35;;;;;;;5.90;3.60;;;;;;;18.02;100.00;101758.56;5295416;28;20093;-67
2022/09/05 01:04:50;;;;;;;3.97;2.95;;;;;;;18.06;100.00;101756.44;5296925;28;20085;-67
2022/09/05 01:07:25;;;;;;;7.43;3.20;;;;;;;17.75;100.00;101759.53;5293552;28;20054;-67
2022/09/05 01:10:38;;;;;;;6.93;2.90;;;;;;;17.94;100.00;101754.03;5293315;28;20043;-67
2022/09/05 01:13:27;;;;;;;4.90;3.15;;;;;;;17.85;100.00;101756.81;5296904;28;20040;-67
2022/09/05 01:16:08;;;;;;;7.65;3.42;;;;;;;17.59;100.00;101746.97;5297101;28;20111;-67
2022/09/05 01:18:54;;;;;;;7.95;3.03;;;;;;;17.65;100.00;101751.69;5295409;28;20043;-67
2022/09/05 01:21:48;;;;;;;4.85;2.90;;;;;;;17.73;100.00;101754.38;5296608;28;20192;-67
2022/09/05 01:24:44;;;;;;;5.78;3.40;;;;;;;17.55;100.00;101755.41;5291998;28;20028;-67
2022/09/05 01:27:47;;;;;;;6.38;3.47;;;;;;;17.69;100.00;101758.31;5290506;28;20473;-68
2022/09/05 01:30:22;;;;;;;7.90;3.33;;;;;;;17.47;100.00;101756.16;5288104;28;20032;-67
2022/09/05 01:33:08;;;;;;;8.43;3.60;;;;;;;17.35;100.00;101763.50;5296552;28;20622;-67
2022/09/05 01:36:08;;;;;;;5.57;3.28;;;;;;;17.63;100.00;101753.63;5295365;28;20107;-67
2022/09/05 01:39:23;;;;;;;8.93;3.90;;;;;;;17.59;100.00;101751.44;5294010;28;20108;-67
2022/09/05 01:42:24;;;;;;;6.85;3.25;;;;;;;17.44;100.00;101753.81;5268713;28;20089;-67
2022/09/05 01:45:03;;;;;;;7.22;3.38;;;;;;;17.31;100.00;101748.88;5295642;28;20111;-67
2022/09/05 01:48:08;;;;;;;8.35;3.50;;;;;;;17.46;100.00;101741.22;5296796;28;20024;-68
2022/09/05 01:50:53;;;;;;;9.93;4.40;;;;;;;17.29;100.00;101742.09;5295298;28;20028;-67
2022/09/05 01:53:35;;;;;;;10.65;4.10;;;;;;;17.35;100.00;101750.28;5295883;28;20070;-67
2022/09/05 01:56:25;;;;;;;7.03;4.00;;;;;;;17.31;100.00;101750.72;5294920;28;20059;-67
2022/09/05 01:58:59;;;;;;;7.65;4.43;;;;;;;17.15;100.00;101749.56;5297954;28;20075;-67
2022/09/05 02:02:08;;;;;;;7.32;3.90;;;;;;;17.37;100.00;101750.09;5293095;28;20111;-67
2022/09/05 02:04:56;;;;;;;9.55;3.97;;;;;;;17.17;100.00;101742.31;5293263;28;20645;-67
2022/09/05 02:07:34;;;;;;;11.55;4.38;;;;;;;17.05;100.00;101746.19;5292928;28;20043;-67
2022/09/05 02:10:24;;;;;;;6.65;3.97;;;;;;;17.09;100.00;101750.19;5295996;28;20020;-67
2022/09/05 02:13:37;;;;;;;8.52;4.50;;;;;;;17.30;100.00;101749.03;5296634;28;20059;-67
2022/09/05 02:16:14;;;;;;;12.05;4.85;;;;;;;17.17;100.00;101749.44;5280540;28;20165;-68
2022/09/05 02:18:53;;;;;;;7.45;4.68;;;;;;;17.19;100.00;101755.41;5294706;28;20055;-68
2022/09/05 02:21:37;;;;;;;7.47;4.20;;;;;;;17.15;100.00;101760.16;5294234;28;20722;-67
2022/09/05 02:24:16;;;;;;;9.75;4.88;;;;;;;17.10;100.00;101753.66;5293747;28;20032;-67
2022/09/05 02:27:12;;;;;;;6.38;4.28;;;;;;;17.19;100.00;101758.88;5294754;28;20409;-67
2022/09/05 02:30:11;;;;;;;7.30;4.30;;;;;;;17.30;100.00;101760.47;5295743;28;20032;-68
2022/09/05 02:32:53;;;;;;;8.13;4.10;;;;;;;17.04;100.00;101765.69;5297307;28;20090;-67
2022/09/05 02:35:35;;;;;;;11.55;4.93;;;;;;;16.98;100.00;101758.34;5301246;28;20388;-67
2022/09/05 02:38:15;;;;;;;7.60;4.65;;;;;;;16.93;100.00;101755.31;5296698;28;20086;-67
2022/09/05 02:41:16;;;;;;;7.50;4.50;;;;;;;16.85;100.00;101765.81;5298782;28;20039;-68
2022/09/05 02:44:12;;;;;;;7.47;4.60;;;;;;;17.12;100.00;101762.28;5299659;28;20032;-68
2022/09/05 02:46:47;;;;;;;8.52;4.72;;;;;;;16.86;100.00;101762.16;5298952;28;20028;-67
2022/09/05 02:49:33;;;;;;;9.45;4.60;;;;;;;16.87;100.00;101764.69;5298630;28;20495;-68
2022/09/05 02:52:08;;;;;;;7.07;4.70;;;;;;;16.74;100.00;101759.75;5300224;28;20106;-68
2022/09/05 02:54:46;;;;;;;8.98;4.55;;;;;;;16.78;100.00;101763.78;5298288;28;20024;-68
2022/09/05 02:57:39;;;;;;;7.20;4.57;;;;;;;16.91;100.00;101765.22;5299679;28;20020;-67
2022/09/05 03:00:19;;;;;;;8.30;4.75;;;;;;;16.73;100.00;101758.06;5299317;28;20055;-67
2022/09/05 03:03:08;;;;;;;10.25;5.07;;;;;;;16.62;100.00;101768.81;5299877;28;20077;-67
2022/09/05 03:05:50;;;;;;;8.85;5.18;;;;;;;16.67;100.00;101758.66;5299933;28;20032;-67
2022/09/05 03:08:55;;;;;;;15.02;5.15;;;;;;;16.76;100.00;101759.59;5298265;28;20099;-67
2022/09/05 03:12:04;;;;;;;6.25;4.55;;;;;;;16.76;100.00;101765.72;5297818;28;20039;-67
2022/09/05 03:14:47;;;;;;;8.05;4.55;;;;;;;16.64;100.00;101761.59;5300438;28;20038;-67
2022/09/05 03:17:59;;;;;;;9.20;4.75;;;;;;;16.84;100.00;101761.50;5298202;28;20078;-67
2022/09/05 03:20:54;;;;;;;6.80;4.85;;;;;;;16.77;100.00;101755.97;5297804;28;20046;-67
2022/09/05 03:23:55;;;;;;;10.07;5.13;;;;;;;16.66;100.00;101754.31;5301049;28;20028;-67
2022/09/05 03:27:16;;;;;;;8.55;5.00;;;;;;;16.71;100.00;101760.00;5295428;28;20081;-67
2022/09/05 03:30:15;;;;;;;7.13;4.60;;;;;;;16.65;100.00;101757.13;5298765;28;20045;-68
2022/09/05 03:33:11;;;;;;;7.07;4.70;;;;;;;16.69;100.00;101758.47;5299580;28;20081;-67
2022/09/05 03:36:19;;;;;;;8.98;5.10;;;;;;;16.71;100.00;101751.25;5299311;28;20559;-67
2022/09/05 03:39:29;;;;;;;7.07;4.70;;;;;;;16.65;100.00;101757.94;5298348;28;20020;-67
2022/09/05 03:42:20;;;;;;;8.18;4.60;;;;;;;16.68;100.00;101755.00;5297340;28;20416;-67
2022/09/05 03:45:21;;;;;;;10.23;4.95;;;;;;;16.62;100.00;101763.53;5295968;28;20024;-67
2022/09/05 03:48:01;;;;;;;6.70;4.32;;;;;;;16.35;100.00;101769.63;5298352;28;20311;-67
2022/09/05 03:50:54;;;;;;;6.50;4.70;;;;;;;16.28;100.00;101763.25;5297304;28;20046;-67
2022/09/05 03:53:56;;;;;;;7.70;4.72;;;;;;;16.53;100.00;101756.50;5299590;28;20035;-66
2022/09/05 03:56:43;;;;;;;7.60;4.80;;;;;;;16.17;100.00;101751.03;5300157;28;20803;-67
2022/09/05 03:59:36;;;;;;;6.38;4.43;;;;;;;16.44;100.00;101752.06;5295191;28;20048;-68
2022/09/05 04:02:12;;;;;;;5.38;4.53;;;;;;;16.24;100.00;101756.59;5292898;28;20369;-67
2022/09/05 04:04:54;;;;;;;8.45;4.60;;;;;;;16.21;100.00;101759.53;5298877;28;20115;-67
2022/09/05 04:07:44;;;;;;;6.57;4.18;;;;;;;16.33;100.00;101754.88;5295651;28;20032;-67
2022/09/05 04:10:29;;;;;;;8.73;4.95;;;;;;;16.32;100.00;101763.81;5298806;28;20032;-67
2022/09/05 04:13:13;;;;;;;6.65;5.10;;;;;;;16.14;100.00;101751.38;5299211;28;20024;-68
2022/09/05 04:15:48;;;;;;;9.80;5.07;;;;;;;16.07;100.00;101752.91;5295197;28;20480;-67
2022/09/05 04:18:32;;;;;;;5.70;4.90;;;;;;;16.19;100.00;101757.03;5298888;28;20472;-67
2022/09/05 04:21:10;;;;;;;6.28;5.03;;;;;;;16.13;100.00;101754.13;5299500;28;20445;-67
2022/09/05 04:24:05;;;;;;;6.07;4.57;;;;;;;16.32;100.00;101756.69;5297903;28;20154;-67
2022/09/05 04:26:59;;;;;;;6.43;5.13;;;;;;;16.36;100.00;101754.59;5298708;28;20085;-66
2022/09/05 04:29:52;;;;;;;8.43;5.07;;;;;;;16.10;100.00;101752.63;5289844;28;20051;-67
2022/09/05 04:32:52;;;;;;;5.97;4.97;;;;;;;16.29;100.00;101752.56;5294810;28;20032;-67
2022/09/05 04:35:51;;;;;;;7.43;4.53;;;;;;;16.24;100.00;101752.13;5296901;28;20358;-67
2022/09/05 04:38:43;;;;;;;6.55;5.15;;;;;;;16.22;100.00;101754.13;5298251;28;20107;-66
2022/09/05 04:41:18;;;;;;;7.05;5.20;;;;;;;16.03;100.00;101759.47;5296579;28;20073;-67
2022/09/05 04:44:05;;;;;;;6.22;4.72;;;;;;;16.12;100.00;101757.75;5295812;28;20036;-67
2022/09/05 04:46:45;;;;;;;5.88;4.70;;;;;;;16.07;100.00;101766.13;5296733;28;20028;-67
2022/09/05 04:49:36;;;;;;;6.72;4.55;;;;;;;16.14;100.00;101764.59;5295540;28;20036;-67
2022/09/05 04:52:16;;;;;;;7.20;4.80;;;;;;;15.91;100.00;101774.66;5297663;28;20489;-67
2022/09/05 04:54:54;;;;;;;8.35;5.15;;;;;;;16.04;100.00;101774.34;5298601;28;20024;-67
2022/09/05 04:57:47;;;;;;;8.50;5.07;;;;;;;16.11;100.00;101767.50;5296972;28;20484;-66
2022/09/05 05:00:33;;;;;;;7.78;5.63;;;;;;;16.10;100.00;101773.78;5296051;28;20509;-66
2022/09/05 05:03:14;;;;;;;8.95;5.25;;;;;;;16.02;100.00;101771.84;5279153;28;20059;-66
2022/09/05 05:05:45;;;;;;;7.10;5.35;;;;;;;15.95;100.00;101780.50;5297478;28;20030;-66
2022/09/05 05:08:39;;;;;;;7.20;5.23;;;;;;;15.96;100.00;101782.97;5296677;28;20023;-66
2022/09/05 05:11:37;;;;;;;6.93;5.22;;;;;;;16.29;100.00;101781.66;5298053;28;20434;-66
2022/09/05 05:14:34;;;;;;;6.70;5.60;;;;;;;16.23;100.00;101779.56;5294211;28;20146;-66
2022/09/05 05:17:25;;;;;;;6.28;5.57;;;;;;;16.23;100.00;101776.91;5294289;28;20377;-67
2022/09/05 05:20:40;;;;;;;7.15;5.95;;;;;;;16.26;100.00;101783.75;5296247;28;20028;-68
2022/09/05 05:23:17;;;;;;;9.38;5.90;;;;;;;16.15;100.00;101775.97;5292826;28;20038;-67
2022/09/05 05:25:52;;;;;;;8.43;5.35;;;;;;;16.05;100.00;101794.50;5295054;28;20531;-66
2022/09/05 05:28:29;;;;;;;7.32;5.60;;;;;;;16.04;100.00;101788.38;5296109;28;20064;-67
2022/09/05 05:31:12;;;;;;;8.43;5.70;;;;;;;16.18;100.00;101787.09;5296263;28;20039;-66
2022/09/05 05:33:47;;;;;;;6.93;5.45;;;;;;;16.11;100.00;101786.00;5295968;28;20028;-66
2022/09/05 05:36:25;;;;;;;9.98;6.18;;;;;;;16.16;100.00;101783.75;5295033;28;20024;-66
2022/09/05 05:39:09;;;;;;;7.70;6.07;;;;;;;16.25;100.00;101782.06;5294973;28;20024;-66
2022/09/05 05:41:54;;;;;;;7.32;6.05;;;;;;;16.27;100.00;101780.94;5296249;28;20051;-66
2022/09/05 05:44:34;;;;;;;9.65;6.90;;;;;;;16.12;100.00;101785.03;5281870;28;20126;-67
2022/09/05 05:47:30;;;;;;;9.27;6.50;;;;;;;16.34;100.00;101775.09;5277868;28;20048;-66
2022/09/05 05:50:12;;;;;;;6.78;6.10;;;;;;;16.36;100.00;101786.34;5292803;28;20229;-66
2022/09/05 05:53:06;;;;;;;8.57;6.32;;;;;;;16.46;100.00;101785.31;5293433;28;20507;-66
2022/09/05 05:55:54;;;;;;;7.63;6.13;;;;;;;16.45;100.00;101794.25;5296055;28;20028;-66
2022/09/05 05:58:47;;;;;;;9.35;6.82;;;;;;;16.54;100.00;101792.53;5295134;28;20027;-66
2022/09/05 06:02:04;;;;;;;9.95;6.85;;;;;;;16.78;100.00;101786.72;5295008;28;20470;-66
2022/09/05 06:05:15;;;;;;;9.45;7.05;;;;;;;16.86;100.00;101800.09;5295769;28;20504;-66
2022/09/05 06:08:25;;;;;;;9.80;7.75;;;;;;;17.04;100.00;101802.75;5296980;28;20028;-66
2022/09/05 06:11:17;;;;;;;11.20;7.63;;;;;;;17.02;100.00;101808.19;5295269;28;20031;-66
2022/09/05 06:13:57;;;;;;;10.57;7.38;;;;;;;17.02;100.00;101810.00;5296045;28;20039;-66
2022/09/05 06:16:57;;;;;;;12.02;7.95;;;;;;;17.21;100.00;101817.84;5292374;28;20508;-66
2022/09/05 06:19:37;;;;;;;10.23;8.43;;;;;;;17.28;100.00;101812.78;5293072;28;20404;-66
2022/09/05 06:22:32;;;;;;;11.68;7.63;;;;;;;17.31;100.00;101815.09;5294679;28;20067;-65
2022/09/05 06:25:09;;;;;;;11.07;8.48;;;;;;;17.54;100.00;101815.50;5295509;28;20052;-66
2022/09/05 06:27:55;;;;;;;11.65;8.02;;;;;;;17.78;100.00;101811.44;5295639;28;20028;-66
2022/09/05 06:30:35;;;;;;;13.40;8.70;;;;;;;17.86;100.00;101811.47;5288834;28;20039;-67
2022/09/05 06:33:18;;;;;;;36.20;9.27;;;;;;;17.76;100.00;101819.50;5297581;28;20024;-67
2022/09/05 06:36:12;;;;;;;10.05;8.25;;;;;;;18.21;100.00;101816.69;5294034;28;20026;-67
2022/09/05 06:39:01;;;;;;;9.10;7.90;;;;;;;18.24;100.00;101816.38;5293994;28;20067;-67
2022/09/05 06:42:21;;;;;;;8.80;7.90;;;;;;;18.48;100.00;101810.38;5297355;28;20032;-67
2022/09/05 06:45:02;;;;;;;10.13;7.63;;;;;;;18.67;100.00;101819.91;5270913;28;20059;-67
2022/09/05 06:47:37;;;;;;;10.35;7.95;;;;;;;18.68;100.00;101815.47;5293368;28;20046;-68
2022/09/05 06:50:18;;;;;;;11.10;8.23;;;;;;;19.00;100.00;101806.78;5293845;28;20062;-67
2022/09/05 06:53:11;;;;;;;9.65;7.90;;;;;;;19.22;100.00;101805.34;5295524;28;20063;-67
2022/09/05 06:56:12;;;;;;;11.63;7.68;;;;;;;19.36;100.00;101803.91;5297368;28;20036;-67
2022/09/05 06:59:02;;;;;;;8.10;6.95;;;;;;;19.63;100.00;101808.09;5244765;28;20043;-67
2022/09/05 07:01:47;;;;;;;8.27;7.13;;;;;;;19.71;100.00;101804.59;5295689;28;20028;-67
2022/09/05 07:04:31;;;;;;;11.52;7.00;;;;;;;20.02;99.87;101813.53;5293920;28;20123;-67
2022/09/05 07:07:18;;;;;;;8.85;6.18;;;;;;;20.24;95.15;101820.00;5294733;28;20078;-67
2022/09/05 07:10:22;;;;;;;8.80;5.53;;;;;;;20.62;96.10;101821.06;5295775;28;20392;-67
2022/09/05 07:13:14;;;;;;;8.48;5.32;;;;;;;20.65;96.62;101819.91;5294231;28;20081;-69
2022/09/05 07:16:35;;;;;;;8.38;4.78;;;;;;;20.90;92.19;101825.94;5297048;28;20020;-68
2022/09/05 07:19:25;;;;;;;8.40;4.82;;;;;;;20.96;92.50;101819.91;5283796;28;20047;-67
2022/09/05 07:22:02;;;;;;;7.55;4.88;;;;;;;21.03;86.86;101830.72;5297344;28;20032;-67
2022/09/05 07:24:39;;;;;;;5.78;3.95;;;;;;;21.35;83.97;101821.69;5300960;28;20032;-67
2022/09/05 07:27:26;;;;;;;6.72;3.83;;;;;;;21.16;86.73;101814.97;5298428;28;20032;-67
2022/09/05 07:29:58;;;;;;;5.30;3.45;;;;;;;21.32;81.74;101825.50;5295085;28;20074;-66
2022/09/05 07:32:44;;;;;;;5.82;3.00;;;;;;;21.49;80.40;101831.59;5295873;28;20085;-67
2022/09/05 07:35:28;;;;;;;5.90;2.53;;;;;;;21.86;75.17;101830.81;5296547;28;20051;-67
2022/09/05 07:38:12;;;;;;;7.80;2.80;;;;;;;21.91;76.14;101832.94;5297541;28;20166;-67
2022/09/05 07:41:22;;;;;;;5.72;2.47;;;;;;;22.17;76.39;101840.56;5297597;28;20032;-67
2022/09/05 07:44:00;;;;;;;3.80;2.25;;;;;;;22.25;67.66;101835.13;5298728;28;20024;-66
2022/09/05 07:46:38;;;;;;;5.22;2.70;;;;;;;22.42;66.91;101842.94;5299393;28;20059;-67
2022/09/05 07:49:17;;;;;;;5.93;2.47;;;;;;;22.58;66.50;101832.94;5297674;28;20020;-67
2022/09/05 07:51:55;;;;;;;5.88;2.60;;;;;;;22.65;64.45;101840.19;5295269;28;20063;-67
2022/09/05 07:54:31;;;;;;;3.55;1.83;;;;;;;22.87;64.57;101838.41;5299658;28;20506;-67
2022/09/05 07:57:08;;;;;;;4.63;2.35;;;;;;;23.11;61.77;101840.78;5299269;28;20132;-67
2022/09/05 07:59:42;;;;;;;5.90;2.40;;;;;;;23.24;59.66;101835.56;5297544;28;20097;-67
2022/09/05 08:02:14;;;;;;;7.32;2.30;;;;;;;23.21;62.91;101845.81;5299539;28;20434;-67
2022/09/05 08:04:45;;;;;;;4.13;2.10;;;;;;;23.53;60.10;101837.31;5299694;28;20026;-67
2022/09/05 08:07:21;;;;;;;5.23;2.07;;;;;;;23.76;59.45;101836.31;5295258;28;20070;-67
2022/09/05 08:10:00;;;;;;;5.30;2.10;;;;;;;23.98;56.99;101837.09;5297907;28;20028;-67
2022/09/05 08:12:38;;;;;;;5.38;2.10;;;;;;;24.08;56.20;101844.78;5299487;28;20384;-67
2022/09/05 08:15:15;;;;;;;4.05;1.90;;;;;;;24.23;53.80;101832.94;5298286;28;20081;-67
2022/09/05 08:18:17;;;;;;;4.10;2.00;;;;;;;24.57;54.42;101830.47;5295276;28;20124;-67
2022/09/05 08:20:56;;;;;;;6.75;1.90;;;;;;;24.55;53.14;101837.88;5296888;28;20496;-67
2022/09/05 08:23:35;;;;;;;2.75;1.73;;;;;;;24.82;53.98;101836.16;5297264;28;20486;-67
2022/09/05 08:26:46;;;;;;;4.80;1.90;;;;;;;25.07;53.94;101841.81;5296861;28;20028;-68
2022/09/05 08:29:39;;;;;;;3.72;1.77;;;;;;;25.34;52.52;101842.72;5298574;28;20035;-67
2022/09/05 08:32:12;;;;;;;;;;;;;;;25.75;51.63;101849.78;5296025;28;20035;-67
2022/09/05 08:34:53;;;;;;;4.85;1.90;;;;;;;25.69;51.81;101848.78;5297422;28;20289;-67
2022/09/05 08:37:26;;;;;;;8.10;2.22;;;;;;;25.67;47.51;101848.13;5285955;28;20105;-67
2022/09/05 08:40:16;;;;;;;4.05;1.77;;;;;;;25.87;48.37;101846.28;5297488;28;20499;-67
2022/09/05 08:42:54;;;;;;;4.70;2.00;;;;;;;25.86;49.09;101846.53;5298020;28;20027;-67
2022/09/05 08:45:39;;;;;;;6.63;2.10;;;;;;;26.06;48.67;101852.69;5297294;28;20081;-67
2022/09/05 08:48:32;;;;;;;5.25;1.90;;;;;;;26.14;46.03;101843.63;5296297;28;20051;-67
2022/09/05 08:51:23;;;;;;;4.40;1.85;;;;;;;26.47;46.10;101845.41;5296985;28;20052;-67
2022/09/05 08:54:00;;;;;;;5.15;1.90;;;;;;;26.40;44.90;101826.59;5278475;28;20032;-67
2022/09/05 08:56:40;;;;;;;6.75;2.10;;;;;;;26.74;45.09;101824.63;5298327;28;20056;-68
2022/09/05 08:59:25;;;;;;;4.90;1.73;;;;;;;26.99;45.68;101830.13;5297325;28;20040;-67
2022/09/05 09:02:10;;;;;;;3.92;2.13;;;;;;;26.95;42.95;101818.13;5296529;28;20055;-67
2022/09/05 09:04:46;;;;;;;5.45;1.80;;;;;;;27.17;42.24;101827.56;5293003;28;20036;-67
2022/09/05 09:07:31;;;;;;;3.80;1.88;;;;;;;27.28;42.30;101821.50;5296438;28;20402;-68
2022/09/05 09:10:27;;;;;;;4.43;1.77;;;;;;;27.57;41.83;101822.69;5296055;28;20089;-68
2022/09/05 09:13:29;;;;;;;3.72;1.88;;;;;;;27.78;40.14;101821.53;5296345;28;20112;-68
2022/09/05 09:16:12;;;;;;;3.45;1.80;;;;;;;27.76;39.83;101815.53;5296549;28;20137;-68
2022/09/05 09:19:04;;;;;;;5.80;1.80;;;;;;;28.01;39.80;101812.00;5295795;28;20665;-68
2022/09/05 09:21:46;;;;;;;3.53;1.77;;;;;;;28.03;39.18;101815.28;5294567;28;20409;-68
2022/09/05 09:24:34;;;;;;;4.72;1.60;;;;;;;28.27;37.98;101811.72;5296294;28;20050;-68
2022/09/05 09:27:19;;;;;;;4.60;1.98;;;;;;;28.32;36.87;101811.84;5289354;28;20039;-68
2022/09/05 09:29:58;;;;;;;4.50;1.60;;;;;;;28.38;36.30;101817.44;5296118;28;20054;-68
2022/09/05 09:32:36;;;;;;;5.47;1.92;;;;;;;28.45;36.34;101813.63;5294546;28;20039;-68
2022/09/05 09:35:16;;;;;;;3.47;1.40;;;;;;;28.56;35.38;101806.63;5290316;28;20031;-68
2022/09/05 09:38:08;;;;;;;3.33;1.50;;;;;;;28.78;34.41;101807.78;5288410;28;20031;-68
2022/09/05 09:41:10;;;;;;;2.45;1.33;;;;;;;28.90;34.78;101801.63;5295407;28;20028;-68
2022/09/05 09:44:05;;;;;;;5.10;1.47;;;;;;;29.07;35.09;101803.47;5295098;28;20393;-68
2022/09/05 09:46:43;;;;;;;4.18;1.40;;;;;;;29.12;35.24;101802.78;5296205;28;20020;-68
2022/09/05 09:49:14;;;;;;;4.68;1.50;;;;;;;29.19;33.71;101798.13;5288614;28;20028;-68
2022/09/05 09:52:04;;;;;;;3.97;1.67;;;;;;;29.45;34.11;101798.75;5297470;28;20028;-68
2022/09/05 09:55:10;;;;;;;3.42;1.45;;;;;;;29.59;33.88;101797.53;5294555;28;20496;-68
2022/09/05 09:58:03;;;;;;;3.65;1.40;;;;;;;29.44;32.91;101797.13;5278138;28;20032;-69
2022/09/05 10:01:05;;;;;;;2.88;1.38;;;;;;;29.73;32.13;101806.19;5293957;28;20052;-68
2022/09/05 10:04:06;;;;;;;3.08;1.40;;;;;;;29.75;32.01;101794.09;5295997;28;20512;-69
2022/09/05 10:06:58;;;;;;;3.42;1.45;;;;;;;30.08;32.02;101792.69;5296056;28;20511;-69
2022/09/05 10:09:54;;;;;;;3.70;1.30;;;;;;;30.15;31.05;101789.84;5295281;28;20093;-69
2022/09/05 10:13:04;;;;;;;6.03;1.40;;;;;;;30.14;31.06;101789.00;5276279;28;20034;-68
2022/09/05 10:16:06;;;;;;;4.35;1.40;;;;;;;30.32;30.91;101784.56;5293527;28;20378;-69
2022/09/05 10:18:43;;;;;;;4.00;1.40;;;;;;;30.26;30.56;101783.63;5293540;28;20024;-69
2022/09/05 10:21:36;;;;;;;4.78;1.30;;;;;;;30.35;30.90;101776.78;5276036;28;20032;-68
2022/09/05 10:24:26;;;;;;;3.78;1.40;;;;;;;30.25;30.15;101779.28;5274263;28;20038;-69
2022/09/05 10:27:10;;;;;;;2.97;1.45;;;;;;;30.43;30.25;101772.88;5292362;28;20024;-69
2022/09/05 10:29:43;;;;;;;2.10;1.23;;;;;;;30.46;30.81;101770.53;5292143;28;20035;-69
2022/09/05 10:32:20;;;;;;;4.47;1.27;;;;;;;30.70;30.87;101775.84;5294626;28;20150;-69
2022/09/05 10:35:10;;;;;;;2.92;1.20;;;;;;;30.73;29.96;101764.53;5292710;28;20108;-69
2022/09/05 10:37:50;;;;;;;3.33;1.10;;;;;;;30.91;29.10;101763.50;5292359;28;20024;-68
2022/09/05 10:40:24;;;;;;;5.88;1.33;;;;;;;30.69;29.45;101766.09;5294798;28;20447;-69
2022/09/05 10:43:07;;;;;;;3.70;1.30;;;;;;;30.90;29.25;101764.59;5294313;28;20572;-69
2022/09/05 10:45:50;;;;;;;3.22;1.40;;;;;;;30.90;28.82;101760.00;5295541;28;20036;-69
2022/09/05 10:48:24;;;;;;;3.08;1.33;;;;;;;30.97;28.10;101757.97;5293700;28;21148;-69
2022/09/05 10:51:05;;;;;;;3.60;1.30;;;;;;;31.02;27.96;101758.03;5294345;28;20031;-69
2022/09/05 10:53:53;;;;;;;3.05;1.10;;;;;;;31.30;27.64;101759.09;5295462;28;20031;-69
2022/09/05 10:56:30;;;;;;;4.75;1.15;;;;;;;31.19;27.90;101758.06;5298082;28;20465;-69
2022/09/05 10:59:03;;;;;;;2.17;1.08;;;;;;;31.21;26.76;101744.25;5294916;28;20093;-69
2022/09/05 11:01:40;;;;;;;3.05;1.10;;;;;;;31.28;27.37;101747.63;5298335;28;20059;-69
2022/09/05 11:04:53;;;;;;;2.60;1.20;;;;;;;31.58;27.21;101741.88;5297246;28;20281;-68
2022/09/05 11:07:46;;;;;;;1.60;1.05;;;;;;;31.58;27.47;101744.59;5297627;28;20374;-69
2022/09/05 11:10:23;;;;;;;2.47;1.13;;;;;;;31.74;26.63;101737.50;5298844;28;20089;-69
2022/09/05 11:13:09;;;;;;;2.30;1.00;;;;;;;31.68;26.20;101736.63;5297407;28;20028;-69
2022/09/05 11:15:56;;;;;;;2.33;1.10;;;;;;;31.66;26.52;101732.53;5278068;28;20119;-69
2022/09/05 11:18:44;;;;;;;2.70;1.33;;;;;;;31.83;26.37;101735.19;5296153;28;20504;-69
2022/09/05 11:21:25;;;;;;;3.92;1.15;;;;;;;31.85;26.07;101733.03;5297742;28;20023;-69
2022/09/05 11:24:31;;;;;;;3.50;1.30;;;;;;;32.22;26.37;101730.56;5298135;28;20028;-69
2022/09/05 11:27:27;;;;;;;2.28;1.00;;;;;;;32.10;26.05;101736.13;5298699;28;20115;-69
2022/09/05 11:30:03;;;;;;;5.15;1.35;;;;;;;32.22;26.74;101735.97;5293562;28;20039;-69
2022/09/05 11:33:02;;;;;;;2.03;1.20;;;;;;;32.33;26.15;101728.78;5299851;28;20027;-69
2022/09/05 11:36:01;;;;;;;3.97;1.10;;;;;;;32.54;25.98;101721.69;5296053;28;20447;-69
2022/09/05 11:39:08;;;;;;;3.78;1.27;;;;;;;32.60;26.41;101724.22;5296046;28;20427;-69
2022/09/05 11:41:56;;;;;;;3.42;1.10;;;;;;;32.57;26.43;101722.00;5298104;28;20100;-69
2022/09/05 11:44:39;;;;;;;4.15;1.25;;;;;;;32.70;26.14;101728.94;5294449;28;20374;-69
2022/09/05 11:47:57;;;;;;;3.45;1.48;;;;;;;32.89;26.07;101721.22;5290080;28;20444;-69
2022/09/05 11:50:49;;;;;;;2.72;1.20;;;;;;;32.70;25.95;101716.19;5291865;28;20035;-68
2022/09/05 11:53:43;;;;;;;1.90;1.00;;;;;;;32.58;26.12;101723.66;5296132;28;20015;-68
2022/09/05 11:56:56;;;;;;;3.25;1.20;;;;;;;32.89;26.25;101715.81;5297449;28;20027;-68
2022/09/05 11:59:52;;;;;;;4.32;1.30;;;;;;;32.79;25.75;101723.84;5249280;28;20136;-69
2022/09/05 12:02:42;;;;;;;3.05;1.25;;;;;;;32.91;26.38;101710.91;5296820;28;20032;-69
2022/09/05 12:05:31;;;;;;;2.83;1.30;;;;;;;32.71;25.97;101714.28;5293794;28;20039;-69
2022/09/05 12:08:21;;;;;;;5.68;1.60;;;;;;;32.79;25.95;101716.53;5293875;28;20028;-69
2022/09/05 12:11:08;;;;;;;4.53;1.25;;;;;;;33.09;26.03;101713.28;5297741;28;20053;-68
2022/09/05 12:13:47;;;;;;;6.03;1.23;;;;;;;32.83;25.76;101700.53;5296596;28;20024;-68
2022/09/05 12:16:37;;;;;;;2.72;1.10;;;;;;;32.97;25.90;101706.41;5291671;28;20108;-68
2022/09/05 12:19:31;;;;;;;2.30;1.30;;;;;;;32.95;25.39;101706.63;5297142;28;20023;-68
2022/09/05 12:22:36;;;;;;;2.53;1.42;;;;;;;32.93;26.50;101701.47;5295847;28;20024;-68
2022/09/05 12:25:15;;;;;;;3.75;1.23;;;;;;;32.97;25.55;101701.78;5276802;28;20019;-68
2022/09/05 12:27:53;;;;;;;3.28;1.20;;;;;;;32.92;25.17;101693.56;5294092;28;20146;-69
2022/09/05 12:30:28;;;;;;;3.15;1.38;;;;;;;32.76;25.47;101684.47;5294333;28;20047;-69
2022/09/05 12:33:18;;;;;;;2.92;1.10;;;;;;;33.06;25.36;101688.53;5295317;28;20027;-69
2022/09/05 12:36:02;;;;;;;3.03;1.52;;;;;;;33.05;24.54;101693.16;5294111;28;20028;-69
2022/09/05 12:38:43;;;;;;;2.75;1.10;;;;;;;33.26;24.72;101690.56;5291303;28;20481;-69
2022/09/05 12:41:19;;;;;;;4.47;1.40;;;;;;;33.33;24.44;101685.72;5295544;28;20023;-69
2022/09/05 12:44:02;;;;;;;4.72;1.30;;;;;;;33.46;24.33;101690.75;5296829;28;20485;-69
2022/09/05 12:47:09;;;;;;;2.45;1.30;;;;;;;33.69;25.24;101691.41;5292897;28;20062;-68
2022/09/05 12:50:01;;;;;;;1.90;1.13;;;;;;;33.36;24.17;101691.47;5291910;28;20522;-69
2022/09/05 12:52:41;;;;;;;2.50;1.20;;;;;;;33.25;24.97;101683.50;5293056;28;20052;-69
2022/09/05 12:55:15;;;;;;;5.93;1.10;;;;;;;33.08;24.64;101681.78;5294508;28;20117;-69
2022/09/05 12:57:54;;;;;;;4.20;1.40;;;;;;;32.99;25.48;101677.91;5293009;28;20036;-69